Time;durP1;ratioP1;P1;durP2;ratioP2;P2;SDS_P1;SDS_P2;PMS_P1;PMS_P2;Temp;Humidity;BMP_temperature;BMP_pressure;BME280_temperature;BME280_humidity;BME280_pressure;Samples;Min_cycle;Max_cycle;Signal;HPM_P1;HPM_P2
2021/07/21 00:00:18;;;;;;;13.27;7.73;;;;;;;;;;3596421;39;20129;-60
2021/07/21 00:02:43;;;;;;;15.07;8.37;;;;;;;;;;3595448;39;20340;-60
2021/07/21 00:05:08;;;;;;;16.67;7.65;;;;;;;;;;3597314;39;20305;-60
2021/07/21 00:07:34;;;;;;;15.33;7.53;;;;;;;;;;3595884;39;20032;-60
2021/07/21 00:09:59;;;;;;;20.15;8.02;;;;;;;;;;3595135;39;20034;-60
2021/07/21 00:15:09;;;;;;;13.40;8.13;;;;;;;;;;3595628;39;20051;-67
2021/07/21 00:17:36;;;;;;;11.55;7.72;;;;;;;;;;3596632;39;20054;-67
2021/07/21 00:20:08;;;;;;;12.50;8.02;;;;;;;;;;3595665;39;20065;-68
2021/07/21 00:22:33;;;;;;;12.85;7.90;;;;;;;;;;3594557;39;20372;-60
2021/07/21 00:24:58;;;;;;;13.43;7.70;;;;;;;;;;3598468;39;20417;-60
2021/07/21 00:27:23;;;;;;;11.97;7.50;;;;;;;;;;3597726;39;20920;-60
2021/07/21 00:29:49;;;;;;;12.77;7.50;;;;;;;;;;3597210;39;20338;-61
2021/07/21 00:32:14;;;;;;;17.97;8.20;;;;;;;;;;3595796;39;20342;-60
2021/07/21 00:34:39;;;;;;;15.00;8.00;;;;;;;;;;3595026;39;20110;-60
2021/07/21 00:37:05;;;;;;;13.85;8.10;;;;;;;;;;3594381;39;20031;-60
2021/07/21 00:39:30;;;;;;;14.40;8.50;;;;;;;;;;3595042;39;20109;-60
2021/07/21 00:41:55;;;;;;;13.82;7.72;;;;;;;;;;3596546;39;20308;-60
2021/07/21 00:44:22;;;;;;;15.75;8.30;;;;;;;;;;3595283;39;20070;-60
2021/07/21 00:46:51;;;;;;;18.52;8.73;;;;;;;;;;3593804;39;20036;-60
2021/07/21 00:49:16;;;;;;;16.20;8.82;;;;;;;;;;3596031;39;20359;-67
2021/07/21 00:51:42;;;;;;;16.60;8.23;;;;;;;;;;3595881;39;20039;-60
2021/07/21 00:54:07;;;;;;;17.95;8.85;;;;;;;;;;3594119;39;20713;-60
2021/07/21 00:56:33;;;;;;;11.33;7.80;;;;;;;;;;3595255;39;20064;-60
2021/07/21 00:58:58;;;;;;;14.38;8.57;;;;;;;;;;3594767;39;20035;-60
2021/07/21 01:01:24;;;;;;;16.13;8.50;;;;;;;;;;3594391;39;20093;-61
2021/07/21 01:03:50;;;;;;;16.40;8.40;;;;;;;;;;3590833;39;20043;-59
2021/07/21 01:06:18;;;;;;;12.93;7.53;;;;;;;;;;3593570;39;20080;-59
2021/07/21 01:08:44;;;;;;;15.95;9.05;;;;;;;;;;3595917;39;20694;-59
2021/07/21 01:11:26;;;;;;;15.15;8.82;;;;;;;;;;3594498;39;20066;-61
2021/07/21 01:13:52;;;;;;;15.15;8.05;;;;;;;;;;3595735;39;20051;-59
2021/07/21 01:16:18;;;;;;;14.38;9.02;;;;;;;;;;3594114;39;20048;-59
2021/07/21 01:18:46;;;;;;;16.17;9.23;;;;;;;;;;3594366;39;20035;-59
2021/07/21 01:21:12;;;;;;;18.52;9.45;;;;;;;;;;3594292;39;20036;-59
2021/07/21 01:23:40;;;;;;;17.42;8.98;;;;;;;;;;3592537;39;20084;-59
2021/07/21 01:26:05;;;;;;;17.13;9.32;;;;;;;;;;3594824;39;20032;-59
2021/07/21 01:28:31;;;;;;;18.45;9.20;;;;;;;;;;3596038;39;20048;-60
2021/07/21 01:30:56;;;;;;;14.77;8.37;;;;;;;;;;3595620;39;20055;-59
2021/07/21 01:33:21;;;;;;;18.00;9.00;;;;;;;;;;3595099;39;20031;-59
2021/07/21 01:35:47;;;;;;;16.88;9.02;;;;;;;;;;3595844;39;20712;-59
2021/07/21 01:38:13;;;;;;;16.67;9.50;;;;;;;;;;3592671;39;20047;-59
2021/07/21 01:40:41;;;;;;;25.08;9.65;;;;;;;;;;3584769;39;20625;-59
2021/07/21 01:43:07;;;;;;;16.45;9.02;;;;;;;;;;3595473;39;20039;-59
2021/07/21 01:45:32;;;;;;;14.90;9.43;;;;;;;;;;3593817;39;20218;-59
2021/07/21 01:47:58;;;;;;;16.50;8.93;;;;;;;;;;3594924;39;20036;-59
2021/07/21 01:50:24;;;;;;;15.85;8.95;;;;;;;;;;3585023;39;20031;-59
2021/07/21 01:52:51;;;;;;;16.52;9.10;;;;;;;;;;3595036;39;20028;-61
2021/07/21 01:55:20;;;;;;;16.25;9.20;;;;;;;;;;3593979;39;20027;-59
2021/07/21 01:57:46;;;;;;;17.30;9.55;;;;;;;;;;3594146;39;20028;-59
2021/07/21 02:00:21;;;;;;;14.60;8.40;;;;;;;;;;3592490;39;20035;-59
2021/07/21 02:02:47;;;;;;;16.77;8.57;;;;;;;;;;3592688;39;20040;-59
2021/07/21 02:05:14;;;;;;;17.95;9.50;;;;;;;;;;3595324;39;20581;-67
2021/07/21 02:07:41;;;;;;;17.45;10.20;;;;;;;;;;3593718;39;20035;-59
2021/07/21 02:10:06;;;;;;;15.50;9.03;;;;;;;;;;3595849;39;20024;-59
2021/07/21 02:12:49;;;;;;;15.00;9.13;;;;;;;;;;3588799;39;20285;-59
2021/07/21 02:15:14;;;;;;;16.30;9.75;;;;;;;;;;3597888;39;20036;-59
2021/07/21 02:17:40;;;;;;;19.00;9.18;;;;;;;;;;3596243;39;20023;-59
2021/07/21 02:20:07;;;;;;;18.33;9.50;;;;;;;;;;3596894;39;20068;-59
2021/07/21 02:22:40;;;;;;;15.65;9.00;;;;;;;;;;3596833;39;20028;-67
2021/07/21 02:25:41;;;;;;;15.52;9.20;;;;;;;;;;3572485;40;20052;-67
2021/07/21 02:28:07;;;;;;;18.52;9.40;;;;;;;;;;3592468;39;20040;-66
2021/07/21 02:30:41;;;;;;;17.05;8.57;;;;;;;;;;3588949;39;20389;-67
2021/07/21 02:33:06;;;;;;;16.13;9.13;;;;;;;;;;3595797;39;20039;-67
2021/07/21 02:35:31;;;;;;;16.92;8.93;;;;;;;;;;3595357;39;20290;-67
2021/07/21 02:38:00;;;;;;;15.73;9.20;;;;;;;;;;3594846;39;20040;-67
2021/07/21 02:40:28;;;;;;;14.20;8.77;;;;;;;;;;3595582;39;21000;-67
2021/07/21 02:43:07;;;;;;;21.52;10.25;;;;;;;;;;3593496;39;20036;-67
2021/07/21 02:45:35;;;;;;;19.92;10.25;;;;;;;;;;3593975;39;20143;-66
2021/07/21 02:48:01;;;;;;;14.50;8.98;;;;;;;;;;3594422;39;20032;-66
2021/07/21 02:50:29;;;;;;;17.15;9.98;;;;;;;;;;3598774;39;20047;-66
2021/07/21 02:52:54;;;;;;;18.85;9.38;;;;;;;;;;3596145;39;20712;-66
2021/07/21 02:55:32;;;;;;;15.95;9.65;;;;;;;;;;3594946;39;20087;-66
2021/07/21 02:58:00;;;;;;;16.35;9.73;;;;;;;;;;3595312;39;20028;-66
2021/07/21 03:00:27;;;;;;;15.93;9.07;;;;;;;;;;3594959;39;20077;-67
2021/07/21 03:02:59;;;;;;;21.25;10.85;;;;;;;;;;3595001;39;20083;-67
2021/07/21 03:05:25;;;;;;;16.75;9.73;;;;;;;;;;3595882;39;20048;-67
2021/07/21 03:07:59;;;;;;;18.30;9.80;;;;;;;;;;3598004;39;20055;-67
2021/07/21 03:10:25;;;;;;;15.73;9.43;;;;;;;;;;3594440;39;20039;-67
2021/07/21 03:13:09;;;;;;;18.50;9.63;;;;;;;;;;3595665;39;20055;-66
2021/07/21 03:15:43;;;;;;;17.65;10.15;;;;;;;;;;3596362;39;20036;-66
2021/07/21 03:18:12;;;;;;;19.55;9.77;;;;;;;;;;3601637;39;20028;-66
2021/07/21 03:20:42;;;;;;;18.92;9.02;;;;;;;;;;3597775;39;20036;-67
2021/07/21 03:23:08;;;;;;;14.65;8.25;;;;;;;;;;3597872;39;20062;-67
2021/07/21 03:25:37;;;;;;;15.15;8.70;;;;;;;;;;3598143;39;20023;-66
2021/07/21 03:28:05;;;;;;;16.08;9.32;;;;;;;;;;3597562;39;20067;-67
2021/07/21 03:30:46;;;;;;;15.18;8.50;;;;;;;;;;3590084;39;20133;-67
2021/07/21 03:33:14;;;;;;;15.77;8.57;;;;;;;;;;3597969;39;20098;-66
2021/07/21 03:35:46;;;;;;;16.45;9.30;;;;;;;;;;3596276;39;20047;-66
2021/07/21 03:38:12;;;;;;;16.30;8.93;;;;;;;;;;3600175;39;20721;-66
2021/07/21 03:40:42;;;;;;;22.20;9.57;;;;;;;;;;3595832;39;20047;-67
2021/07/21 03:43:22;;;;;;;16.23;9.07;;;;;;;;;;3594772;39;20062;-66
2021/07/21 03:45:54;;;;;;;13.77;8.00;;;;;;;;;;3598627;39;20023;-66
2021/07/21 03:48:19;;;;;;;16.58;8.50;;;;;;;;;;3597535;39;20024;-68
2021/07/21 03:51:17;;;;;;;15.68;8.55;;;;;;;;;;3592925;39;20095;-66
2021/07/21 03:54:08;;;;;;;14.05;8.48;;;;;;;;;;3587219;39;20044;-67
2021/07/21 03:56:38;;;;;;;18.92;8.75;;;;;;;;;;3592545;39;20662;-67
2021/07/21 03:59:05;;;;;;;14.20;8.90;;;;;;;;;;3598557;39;20065;-67
2021/07/21 04:01:36;;;;;;;17.35;8.55;;;;;;;;;;3589324;39;20117;-67
2021/07/21 04:04:02;;;;;;;12.75;8.10;;;;;;;;;;3596223;39;20047;-67
2021/07/21 04:06:31;;;;;;;14.85;8.25;;;;;;;;;;3595176;39;20356;-67
2021/07/21 04:09:12;;;;;;;14.90;7.82;;;;;;;;;;3593909;39;20390;-67
2021/07/21 04:11:37;;;;;;;14.00;8.20;;;;;;;;;;3596029;39;20117;-67
2021/07/21 04:14:06;;;;;;;16.30;8.07;;;;;;;;;;3596386;39;20039;-66
2021/07/21 04:16:51;;;;;;;17.42;9.27;;;;;;;;;;3590785;39;20039;-66
2021/07/21 04:19:17;;;;;;;18.73;8.43;;;;;;;;;;3594326;39;20036;-66
2021/07/21 04:21:43;;;;;;;16.65;7.95;;;;;;;;;;3586573;39;20769;-66
2021/07/21 04:24:09;;;;;;;14.32;7.93;;;;;;;;;;3597605;39;20537;-67
2021/07/21 04:26:35;;;;;;;15.50;8.02;;;;;;;;;;3595062;39;20065;-67
2021/07/21 04:29:05;;;;;;;12.90;7.70;;;;;;;;;;3589975;39;20393;-67
2021/07/21 04:31:32;;;;;;;21.40;8.57;;;;;;;;;;3595065;39;20137;-67
2021/07/21 04:34:01;;;;;;;17.17;8.23;;;;;;;;;;3596666;39;20136;-67
2021/07/21 04:36:29;;;;;;;15.80;8.38;;;;;;;;;;3601005;39;20034;-67
2021/07/21 04:38:55;;;;;;;14.55;8.68;;;;;;;;;;3595398;39;20032;-67
2021/07/21 04:41:29;;;;;;;15.15;8.63;;;;;;;;;;3598733;39;20325;-67
2021/07/21 04:44:05;;;;;;;14.20;8.13;;;;;;;;;;3589870;39;20038;-67
2021/07/21 04:46:50;;;;;;;16.15;8.70;;;;;;;;;;3596133;39;20507;-67
2021/07/21 04:49:15;;;;;;;15.27;8.60;;;;;;;;;;3594810;39;20040;-67
2021/07/21 04:51:41;;;;;;;12.50;7.50;;;;;;;;;;3595106;39;20787;-67
2021/07/21 04:54:12;;;;;;;16.83;8.95;;;;;;;;;;3599005;39;20044;-67
2021/07/21 04:56:38;;;;;;;17.65;8.40;;;;;;;;;;3595348;39;20051;-67
2021/07/21 04:59:04;;;;;;;16.08;8.50;;;;;;;;;;3597222;39;20439;-67
2021/07/21 05:01:30;;;;;;;15.13;7.97;;;;;;;;;;3591176;39;20032;-67
2021/07/21 05:03:56;;;;;;;12.77;7.72;;;;;;;;;;3596872;39;20044;-67
2021/07/21 05:06:41;;;;;;;13.20;7.38;;;;;;;;;;3597398;39;20417;-68
2021/07/21 05:09:06;;;;;;;17.58;8.25;;;;;;;;;;3596502;39;20032;-67
2021/07/21 05:11:41;;;;;;;18.55;8.25;;;;;;;;;;3597704;39;20020;-67
2021/07/21 05:14:07;;;;;;;16.58;7.90;;;;;;;;;;3595193;39;20055;-67
2021/07/21 05:16:46;;;;;;;16.75;9.52;;;;;;;;;;3582826;39;20162;-67
2021/07/21 05:19:12;;;;;;;19.00;9.55;;;;;;;;;;3594423;39;20040;-66
2021/07/21 05:21:40;;;;;;;16.67;8.55;;;;;;;;;;3595301;39;20051;-67
2021/07/21 05:24:05;;;;;;;15.90;9.15;;;;;;;;;;3591715;39;20435;-67
2021/07/21 05:26:30;;;;;;;14.57;8.47;;;;;;;;;;3591623;39;20028;-67
2021/07/21 05:29:02;;;;;;;18.25;8.93;;;;;;;;;;3596257;39;20298;-67
2021/07/21 05:31:48;;;;;;;13.88;8.57;;;;;;;;;;3590192;39;20673;-67
2021/07/21 05:34:19;;;;;;;15.60;8.50;;;;;;;;;;3595195;39;20039;-67
2021/07/21 05:36:45;;;;;;;18.05;8.73;;;;;;;;;;3595482;39;20027;-67
2021/07/21 05:39:22;;;;;;;16.70;8.55;;;;;;;;;;3596657;39;20052;-67
2021/07/21 05:41:52;;;;;;;12.77;7.57;;;;;;;;;;3595389;39;20146;-67
2021/07/21 05:44:18;;;;;;;13.70;7.60;;;;;;;;;;3594764;39;20420;-67
2021/07/21 05:46:52;;;;;;;20.08;8.27;;;;;;;;;;3596106;39;20087;-68
2021/07/21 05:49:18;;;;;;;14.90;8.27;;;;;;;;;;3595686;39;20040;-67
2021/07/21 05:52:02;;;;;;;15.93;8.25;;;;;;;;;;3596929;39;20467;-68
2021/07/21 05:54:36;;;;;;;14.45;8.18;;;;;;;;;;3593650;39;20052;-68
2021/07/21 05:57:02;;;;;;;17.52;8.65;;;;;;;;;;3595310;39;20047;-68
2021/07/21 05:59:33;;;;;;;18.65;8.52;;;;;;;;;;3597053;39;20028;-68
2021/07/21 06:01:58;;;;;;;17.73;8.63;;;;;;;;;;3594412;39;20085;-67
2021/07/21 06:04:25;;;;;;;15.95;8.45;;;;;;;;;;3587369;39;20050;-67
2021/07/21 06:07:19;;;;;;;14.38;7.88;;;;;;;;;;3597660;39;20145;-68
2021/07/21 06:10:23;;;;;;;15.73;8.38;;;;;;;;;;3563977;40;20127;-68
2021/07/21 06:12:59;;;;;;;15.20;8.30;;;;;;;;;;3558345;40;20485;-68
2021/07/21 06:15:28;;;;;;;14.13;8.63;;;;;;;;;;3572262;39;20448;-68
2021/07/21 06:17:54;;;;;;;15.88;8.32;;;;;;;;;;3597219;39;20050;-68
2021/07/21 06:20:23;;;;;;;14.35;8.27;;;;;;;;;;3585615;39;20046;-68
2021/07/21 06:22:51;;;;;;;14.20;8.20;;;;;;;;;;3595248;39;20029;-67
2021/07/21 06:25:18;;;;;;;17.10;8.10;;;;;;;;;;3598599;39;20040;-68
2021/07/21 06:28:05;;;;;;;18.45;8.10;;;;;;;;;;3588913;39;20039;-68
2021/07/21 06:30:34;;;;;;;12.10;7.28;;;;;;;;;;3594696;39;20035;-68
2021/07/21 06:33:02;;;;;;;13.23;7.57;;;;;;;;;;3590693;39;20046;-68
2021/07/21 06:35:27;;;;;;;17.25;8.60;;;;;;;;;;3597344;39;20830;-68
2021/07/21 06:37:53;;;;;;;17.45;8.07;;;;;;;;;;3595268;39;20070;-68
2021/07/21 06:40:21;;;;;;;18.35;8.00;;;;;;;;;;3589053;39;20501;-68
2021/07/21 06:42:48;;;;;;;12.13;7.47;;;;;;;;;;3595521;39;20033;-68
2021/07/21 06:45:14;;;;;;;12.27;7.57;;;;;;;;;;3599823;39;20040;-68
2021/07/21 06:47:46;;;;;;;14.93;7.80;;;;;;;;;;3597624;39;20075;-68
2021/07/21 06:50:23;;;;;;;15.43;7.88;;;;;;;;;;3600548;39;20047;-68
2021/07/21 06:52:49;;;;;;;17.95;7.60;;;;;;;;;;3599799;39;20072;-68
2021/07/21 06:55:34;;;;;;;16.83;7.97;;;;;;;;;;3598385;39;20044;-68
2021/07/21 06:58:05;;;;;;;12.32;7.43;;;;;;;;;;3596380;39;20063;-68
2021/07/21 07:01:01;;;;;;;13.68;7.35;;;;;;;;;;3591643;39;20704;-68
2021/07/21 07:03:35;;;;;;;12.13;7.22;;;;;;;;;;3599615;39;20027;-68
2021/07/21 07:06:20;;;;;;;16.38;7.45;;;;;;;;;;3583265;39;20123;-68
2021/07/21 07:09:04;;;;;;;20.73;11.98;;;;;;;;;;3599148;39;20043;-69
2021/07/21 07:11:48;;;;;;;17.52;9.07;;;;;;;;;;3591990;39;20854;-68
2021/07/21 07:14:13;;;;;;;16.87;9.30;;;;;;;;;;3591485;39;20044;-69
2021/07/21 07:16:39;;;;;;;16.90;9.27;;;;;;;;;;3600058;39;20866;-69
2021/07/21 07:19:04;;;;;;;14.03;8.17;;;;;;;;;;3598692;39;20256;-68
2021/07/21 07:21:29;;;;;;;12.67;7.57;;;;;;;;;;3596409;39;20135;-68
2021/07/21 07:23:55;;;;;;;13.57;8.05;;;;;;;;;;3598700;39;20109;-69
2021/07/21 07:26:20;;;;;;;13.80;8.05;;;;;;;;;;3596689;39;20044;-69
2021/07/21 07:28:45;;;;;;;11.27;7.47;;;;;;;;;;3596076;39;20055;-68
2021/07/21 07:31:11;;;;;;;15.03;7.67;;;;;;;;;;3595875;39;20448;-68
2021/07/21 07:33:36;;;;;;;18.37;9.33;;;;;;;;;;3597499;39;20856;-68
2021/07/21 07:36:01;;;;;;;12.50;7.73;;;;;;;;;;3590336;39;20032;-69
2021/07/21 07:38:26;;;;;;;12.93;7.27;;;;;;;;;;3596337;39;20043;-69
2021/07/21 07:40:53;;;;;;;14.93;8.33;;;;;;;;;;3596521;39;20506;-69
2021/07/21 07:43:18;;;;;;;15.07;8.23;;;;;;;;;;3595556;39;20258;-68
2021/07/21 07:45:43;;;;;;;15.82;8.98;;;;;;;;;;3598323;39;20048;-69
2021/07/21 07:48:09;;;;;;;14.60;7.83;;;;;;;;;;3597965;39;20020;-62
2021/07/21 07:50:34;;;;;;;13.47;7.20;;;;;;;;;;3595040;39;20037;-62
2021/07/21 07:52:59;;;;;;;16.33;8.00;;;;;;;;;;3597251;39;20085;-62
2021/07/21 07:55:24;;;;;;;12.23;7.80;;;;;;;;;;3597559;39;20277;-62
2021/07/21 07:57:50;;;;;;;14.40;7.83;;;;;;;;;;3595011;39;20020;-62
2021/07/21 08:00:16;;;;;;;14.73;8.75;;;;;;;;;;3590257;39;20020;-62
2021/07/21 08:02:41;;;;;;;16.20;8.57;;;;;;;;;;3596554;39;20035;-62
2021/07/21 08:05:06;;;;;;;16.73;9.57;;;;;;;;;;3598012;39;20391;-62
2021/07/21 08:07:35;;;;;;;13.60;8.20;;;;;;;;;;3596435;39;20028;-62
2021/07/21 08:10:00;;;;;;;14.48;8.48;;;;;;;;;;3595521;39;20056;-62
2021/07/21 08:12:26;;;;;;;12.73;7.53;;;;;;;;;;3594943;39;20031;-62
2021/07/21 08:14:51;;;;;;;10.40;6.63;;;;;;;;;;3597528;39;20908;-62
2021/07/21 08:17:16;;;;;;;10.60;6.45;;;;;;;;;;3596536;39;20701;-62
2021/07/21 08:19:43;;;;;;;14.03;9.10;;;;;;;;;;3595948;39;20031;-62
2021/07/21 08:22:08;;;;;;;10.75;6.32;;;;;;;;;;3595571;39;20567;-62
2021/07/21 08:24:33;;;;;;;14.20;9.07;;;;;;;;;;3593680;39;20031;-62
2021/07/21 08:26:59;;;;;;;11.80;7.13;;;;;;;;;;3598303;39;20038;-68
2021/07/21 08:29:24;;;;;;;10.02;6.25;;;;;;;;;;3592040;39;20051;-68
2021/07/21 08:31:50;;;;;;;10.20;6.40;;;;;;;;;;3595951;39;20156;-68
2021/07/21 08:34:15;;;;;;;11.52;6.40;;;;;;;;;;3597553;39;20060;-69
2021/07/21 08:36:41;;;;;;;14.20;7.07;;;;;;;;;;3600086;39;20036;-68
2021/07/21 08:39:06;;;;;;;14.57;7.00;;;;;;;;;;3597210;39;20036;-69
2021/07/21 08:41:31;;;;;;;12.27;6.43;;;;;;;;;;3596774;39;20120;-68
2021/07/21 08:43:56;;;;;;;7.80;5.67;;;;;;;;;;3589949;39;20270;-68
2021/07/21 08:46:21;;;;;;;10.03;6.07;;;;;;;;;;3595430;39;20091;-68
2021/07/21 08:48:47;;;;;;;8.83;6.07;;;;;;;;;;3597729;39;20035;-68
2021/07/21 08:51:12;;;;;;;11.77;5.93;;;;;;;;;;3597294;39;20056;-69
2021/07/21 08:53:37;;;;;;;8.07;4.80;;;;;;;;;;3598457;39;20024;-68
2021/07/21 08:56:02;;;;;;;10.73;4.83;;;;;;;;;;3598404;39;20058;-69
2021/07/21 08:58:28;;;;;;;7.68;4.40;;;;;;;;;;3596433;39;20035;-68
2021/07/21 09:00:53;;;;;;;9.50;4.60;;;;;;;;;;3597225;39;20028;-68
2021/07/21 09:03:19;;;;;;;9.17;4.67;;;;;;;;;;3598745;39;20869;-69
2021/07/21 09:05:44;;;;;;;7.80;4.22;;;;;;;;;;3597073;39;20031;-68
2021/07/21 09:08:10;;;;;;;6.27;3.97;;;;;;;;;;3597176;39;20144;-69
2021/07/21 09:10:35;;;;;;;6.57;4.47;;;;;;;;;;3595724;39;20020;-68
2021/07/21 09:13:00;;;;;;;5.67;4.03;;;;;;;;;;3591757;39;20042;-68
2021/07/21 09:15:25;;;;;;;8.30;4.27;;;;;;;;;;3597176;39;20683;-68
2021/07/21 09:17:50;;;;;;;7.17;4.77;;;;;;;;;;3595180;39;20036;-68
2021/07/21 09:20:16;;;;;;;5.83;3.80;;;;;;;;;;3596825;39;20016;-69
2021/07/21 09:22:42;;;;;;;12.55;4.03;;;;;;;;;;3598105;39;20035;-68
2021/07/21 09:25:07;;;;;;;6.70;3.58;;;;;;;;;;3598346;39;20028;-69
2021/07/21 09:27:33;;;;;;;4.20;3.00;;;;;;;;;;3589961;39;20428;-68
2021/07/21 09:29:58;;;;;;;6.07;3.90;;;;;;;;;;3594809;39;20126;-67
2021/07/21 09:32:23;;;;;;;5.75;3.33;;;;;;;;;;3595420;39;20548;-67
2021/07/21 09:34:48;;;;;;;5.03;3.10;;;;;;;;;;3595900;39;20032;-67
2021/07/21 09:37:14;;;;;;;9.43;3.80;;;;;;;;;;3594984;39;20042;-67
2021/07/21 09:39:39;;;;;;;6.90;3.40;;;;;;;;;;3596579;39;20258;-67
2021/07/21 09:42:04;;;;;;;12.73;7.23;;;;;;;;;;3599548;39;20055;-68
2021/07/21 09:44:30;;;;;;;8.77;4.35;;;;;;;;;;3597352;39;20030;-67
2021/07/21 09:46:55;;;;;;;9.27;5.40;;;;;;;;;;3595551;39;20076;-67
2021/07/21 09:49:20;;;;;;;6.67;4.23;;;;;;;;;;3597335;39;20782;-68
2021/07/21 09:51:45;;;;;;;8.35;3.45;;;;;;;;;;3597160;39;20024;-67
2021/07/21 09:54:10;;;;;;;8.00;3.30;;;;;;;;;;3595246;39;20027;-67
2021/07/21 09:56:37;;;;;;;6.63;3.27;;;;;;;;;;3596640;39;20028;-67
2021/07/21 09:59:02;;;;;;;8.77;3.35;;;;;;;;;;3599189;39;20112;-67
2021/07/21 10:01:27;;;;;;;4.87;3.07;;;;;;;;;;3596227;39;20024;-68
2021/07/21 10:03:53;;;;;;;6.85;3.40;;;;;;;;;;3596992;39;20032;-66
2021/07/21 10:06:18;;;;;;;10.43;6.07;;;;;;;;;;3596645;39;20048;-67
2021/07/21 10:08:44;;;;;;;4.18;2.40;;;;;;;;;;3596964;39;20039;-60
2021/07/21 10:11:09;;;;;;;4.20;2.87;;;;;;;;;;3599479;39;20411;-59
2021/07/21 10:13:34;;;;;;;8.20;3.40;;;;;;;;;;3596517;39;20238;-60
2021/07/21 10:15:59;;;;;;;4.53;3.10;;;;;;;;;;3595775;39;20040;-59
2021/07/21 10:18:26;;;;;;;6.00;2.27;;;;;;;;;;3594163;39;20067;-60
2021/07/21 10:20:51;;;;;;;4.28;2.83;;;;;;;;;;3598248;39;20035;-65
2021/07/21 10:23:17;;;;;;;6.78;2.90;;;;;;;;;;3597645;39;20385;-66
2021/07/21 10:25:42;;;;;;;5.77;2.67;;;;;;;;;;3597597;39;20140;-66
2021/07/21 10:28:07;;;;;;;3.80;2.33;;;;;;;;;;3595331;39;20036;-66
2021/07/21 10:30:32;;;;;;;3.13;2.25;;;;;;;;;;3596920;39;20053;-66
2021/07/21 10:32:59;;;;;;;2.90;2.40;;;;;;;;;;3589752;40;20491;-67
2021/07/21 10:35:24;;;;;;;7.77;2.57;;;;;;;;;;3597995;39;20116;-66
2021/07/21 10:37:49;;;;;;;3.70;2.10;;;;;;;;;;3597836;39;20250;-67
2021/07/21 10:40:15;;;;;;;4.23;2.90;;;;;;;;;;3595876;39;20032;-66
2021/07/21 10:42:40;;;;;;;4.45;2.50;;;;;;;;;;3596804;39;20417;-67
2021/07/21 10:45:05;;;;;;;3.30;2.13;;;;;;;;;;3598778;39;20085;-66
2021/07/21 10:47:31;;;;;;;4.20;2.40;;;;;;;;;;3595021;39;20028;-66
2021/07/21 10:50:09;;;;;;;3.38;2.42;;;;;;;;;;3596829;39;20039;-66
2021/07/21 10:55:16;;;;;;;2.97;1.80;;;;;;;;;;3596782;39;20039;-66
2021/07/21 11:00:22;;;;;;;4.50;1.90;;;;;;;;;;3595190;39;20036;-66
2021/07/21 11:02:49;;;;;;;3.65;2.15;;;;;;;;;;3595780;39;20621;-66
2021/07/21 11:05:14;;;;;;;3.13;1.80;;;;;;;;;;3596162;39;20394;-60
2021/07/21 11:07:39;;;;;;;2.50;1.93;;;;;;;;;;3595303;39;20036;-60
2021/07/21 11:10:04;;;;;;;5.23;2.30;;;;;;;;;;3598167;39;20540;-60
2021/07/21 11:12:30;;;;;;;5.67;2.20;;;;;;;;;;3595280;39;20027;-60
2021/07/21 11:14:56;;;;;;;2.87;2.00;;;;;;;;;;3595010;39;20020;-59
2021/07/21 11:17:21;;;;;;;3.92;2.33;;;;;;;;;;3596681;39;20027;-67
2021/07/21 11:19:47;;;;;;;3.33;2.10;;;;;;;;;;3597424;39;20028;-67
2021/07/21 11:22:12;;;;;;;4.20;2.10;;;;;;;;;;3595372;39;20040;-67
2021/07/21 11:24:37;;;;;;;4.13;2.63;;;;;;;;;;3595315;39;20257;-68
2021/07/21 11:27:02;;;;;;;6.20;2.80;;;;;;;;;;3597184;39;20074;-68
2021/07/21 11:29:29;;;;;;;7.70;3.73;;;;;;;;;;3596898;39;20143;-67
2021/07/21 11:31:54;;;;;;;6.03;3.63;;;;;;;;;;3595162;39;20277;-67
2021/07/21 11:34:20;;;;;;;10.63;4.20;;;;;;;;;;3599987;39;20045;-68
2021/07/21 11:36:48;;;;;;;5.67;3.80;;;;;;;;;;3599571;39;20281;-67
2021/07/21 11:39:13;;;;;;;4.97;3.30;;;;;;;;;;3597207;39;20028;-67
2021/07/21 11:41:39;;;;;;;9.18;3.72;;;;;;;;;;3595003;39;20403;-66
2021/07/21 11:44:04;;;;;;;15.00;3.33;;;;;;;;;;3597284;39;20024;-67
2021/07/21 11:46:29;;;;;;;7.20;3.87;;;;;;;;;;3597747;39;20446;-68
2021/07/21 11:48:54;;;;;;;9.93;3.90;;;;;;;;;;3598852;39;20130;-67
2021/07/21 11:51:19;;;;;;;9.43;4.53;;;;;;;;;;3595089;39;20489;-67
2021/07/21 11:53:45;;;;;;;7.40;4.53;;;;;;;;;;3596116;39;20140;-68
2021/07/21 11:56:10;;;;;;;14.60;8.88;;;;;;;;;;3591028;39;20027;-68
2021/07/21 11:58:36;;;;;;;10.55;5.25;;;;;;;;;;3597119;39;20036;-68
2021/07/21 12:01:01;;;;;;;7.20;4.30;;;;;;;;;;3598564;39;20016;-60
2021/07/21 12:03:26;;;;;;;7.28;4.10;;;;;;;;;;3595822;39;20024;-67
2021/07/21 12:05:52;;;;;;;8.90;4.40;;;;;;;;;;3599889;39;20035;-67
2021/07/21 12:08:17;;;;;;;8.53;4.37;;;;;;;;;;3599454;39;20559;-61
2021/07/21 12:10:43;;;;;;;9.32;4.50;;;;;;;;;;3590992;39;20028;-62
2021/07/21 12:13:08;;;;;;;7.30;4.22;;;;;;;;;;3598149;39;20774;-61
2021/07/21 12:15:33;;;;;;;8.27;4.50;;;;;;;;;;3596628;39;20618;-61
2021/07/21 12:17:59;;;;;;;7.73;4.13;;;;;;;;;;3598412;39;20020;-61
2021/07/21 12:20:24;;;;;;;8.27;4.30;;;;;;;;;;3598712;39;20589;-60
2021/07/21 12:22:49;;;;;;;7.73;4.30;;;;;;;;;;3597138;39;20394;-60
2021/07/21 12:25:14;;;;;;;6.07;3.70;;;;;;;;;;3599046;39;20498;-62
2021/07/21 12:27:39;;;;;;;6.13;3.83;;;;;;;;;;3591398;39;20940;-61
2021/07/21 12:30:05;;;;;;;8.67;4.43;;;;;;;;;;3597347;39;20047;-61
2021/07/21 12:32:30;;;;;;;6.60;4.03;;;;;;;;;;3596092;39;20028;-61
2021/07/21 12:34:56;;;;;;;8.00;4.47;;;;;;;;;;3598222;39;20374;-60
2021/07/21 12:37:21;;;;;;;7.72;4.70;;;;;;;;;;3596379;39;20146;-61
2021/07/21 12:39:46;;;;;;;6.57;4.17;;;;;;;;;;3598520;39;20043;-61
2021/07/21 12:42:11;;;;;;;7.53;4.17;;;;;;;;;;3597283;39;20646;-60
2021/07/21 12:44:37;;;;;;;6.90;4.73;;;;;;;;;;3596013;39;20511;-67
2021/07/21 12:47:02;;;;;;;6.60;4.37;;;;;;;;;;3595279;39;20273;-68
2021/07/21 12:49:27;;;;;;;7.90;4.22;;;;;;;;;;3598840;39;20104;-61
2021/07/21 12:51:53;;;;;;;7.50;4.40;;;;;;;;;;3594260;39;20039;-60
2021/07/21 12:54:18;;;;;;;8.80;4.33;;;;;;;;;;3595845;39;20042;-61
2021/07/21 12:56:43;;;;;;;7.73;5.43;;;;;;;;;;3596073;39;20041;-61
2021/07/21 12:59:08;;;;;;;9.97;5.43;;;;;;;;;;3598364;39;20032;-61
2021/07/21 13:01:33;;;;;;;8.23;4.43;;;;;;;;;;3590142;39;20280;-61
2021/07/21 13:03:59;;;;;;;6.83;4.23;;;;;;;;;;3595238;39;20492;-60
2021/07/21 13:06:24;;;;;;;6.20;4.23;;;;;;;;;;3596114;39;20034;-60
2021/07/21 13:08:50;;;;;;;7.40;4.30;;;;;;;;;;3596002;39;20112;-60
2021/07/21 13:11:15;;;;;;;6.70;3.97;;;;;;;;;;3594435;39;20031;-60
2021/07/21 13:13:40;;;;;;;7.13;4.43;;;;;;;;;;3596255;39;20036;-67
2021/07/21 13:16:06;;;;;;;6.50;4.20;;;;;;;;;;3592708;39;20775;-67
2021/07/21 13:18:31;;;;;;;6.87;4.47;;;;;;;;;;3595207;39;20020;-67
2021/07/21 13:20:56;;;;;;;8.23;4.43;;;;;;;;;;3596219;39;20262;-68
2021/07/21 13:23:22;;;;;;;8.20;4.72;;;;;;;;;;3595147;39;20420;-66
2021/07/21 13:25:48;;;;;;;12.35;4.38;;;;;;;;;;3594739;39;20040;-67
2021/07/21 13:28:13;;;;;;;7.50;4.60;;;;;;;;;;3589589;39;20117;-66
2021/07/21 13:30:38;;;;;;;8.77;4.73;;;;;;;;;;3595527;39;20054;-67
2021/07/21 13:33:03;;;;;;;7.77;4.63;;;;;;;;;;3597243;39;20334;-66
2021/07/21 13:35:29;;;;;;;10.70;4.73;;;;;;;;;;3594308;39;20081;-67
2021/07/21 13:37:54;;;;;;;7.45;4.72;;;;;;;;;;3590598;39;20675;-66
2021/07/21 13:40:19;;;;;;;8.20;4.73;;;;;;;;;;3596854;39;20164;-60
2021/07/21 13:42:46;;;;;;;7.87;4.80;;;;;;;;;;3595560;39;20064;-60
2021/07/21 13:45:12;;;;;;;12.23;5.18;;;;;;;;;;3594795;39;20031;-67
2021/07/21 13:47:39;;;;;;;7.50;4.60;;;;;;;;;;3596502;39;20028;-67
2021/07/21 13:50:05;;;;;;;8.00;4.50;;;;;;;;;;3588443;39;20026;-67
2021/07/21 13:52:30;;;;;;;9.13;4.80;;;;;;;;;;3593485;39;20580;-67
2021/07/21 13:54:55;;;;;;;7.33;4.90;;;;;;;;;;3593039;39;20086;-67
2021/07/21 13:57:20;;;;;;;7.17;4.63;;;;;;;;;;3591550;39;20027;-66
2021/07/21 13:59:46;;;;;;;13.23;5.18;;;;;;;;;;3589735;39;20052;-67
2021/07/21 14:02:11;;;;;;;8.63;4.30;;;;;;;;;;3595731;39;20035;-67
2021/07/21 14:04:36;;;;;;;10.07;4.90;;;;;;;;;;3595862;39;20047;-60
2021/07/21 14:07:01;;;;;;;8.17;4.80;;;;;;;;;;3596324;39;20067;-67
2021/07/21 14:09:26;;;;;;;8.80;4.93;;;;;;;;;;3596382;39;20077;-66
2021/07/21 14:11:52;;;;;;;10.73;5.00;;;;;;;;;;3595783;39;20628;-67
2021/07/21 14:14:17;;;;;;;10.17;4.93;;;;;;;;;;3594840;39;20040;-67
2021/07/21 14:16:42;;;;;;;7.43;4.90;;;;;;;;;;3595181;39;20320;-67
2021/07/21 14:19:07;;;;;;;7.05;4.00;;;;;;;;;;3598043;39;20016;-60
2021/07/21 14:21:33;;;;;;;10.00;4.60;;;;;;;;;;3596107;39;20024;-60
2021/07/21 14:23:58;;;;;;;11.87;4.77;;;;;;;;;;3595140;39;20032;-60
2021/07/21 14:26:23;;;;;;;8.70;4.33;;;;;;;;;;3597543;39;21076;-60
2021/07/21 14:28:49;;;;;;;11.55;4.45;;;;;;;;;;3595672;39;20261;-61
2021/07/21 14:31:15;;;;;;;12.05;4.65;;;;;;;;;;3596347;39;20035;-61
2021/07/21 14:33:40;;;;;;;8.73;4.60;;;;;;;;;;3596460;39;20050;-60
2021/07/21 14:36:05;;;;;;;8.32;4.35;;;;;;;;;;3589227;39;20773;-60
2021/07/21 14:38:30;;;;;;;12.30;3.92;;;;;;;;;;3594654;39;20047;-59
2021/07/21 14:40:56;;;;;;;12.90;4.17;;;;;;;;;;3584743;40;20290;-60
2021/07/21 14:43:21;;;;;;;5.70;4.20;;;;;;;;;;3596385;39;20284;-60